createdAt,value
2018-07-20T00:08:51.031Z,19.4
2018-07-20T00:19:05.719Z,19.2
2018-07-20T00:29:19.127Z,19.1
2018-07-20T00:39:33.577Z,19.0
2018-07-20T00:49:48.381Z,18.9
2018-07-20T01:00:02.964Z,18.7
2018-07-20T01:10:17.443Z,18.6
2018-07-20T01:20:29.111Z,18.5
2018-07-20T01:31:14.958Z,18.2
2018-07-20T01:42:00.702Z,18.0
2018-07-20T01:52:46.603Z,17.9
2018-07-20T02:03:32.339Z,17.6
2018-07-20T02:14:17.812Z,17.4
2018-07-20T02:25:03.697Z,17.3
2018-07-20T02:35:16.384Z,17.2
2018-07-20T02:45:28.433Z,17.1
2018-07-20T02:55:40.722Z,16.9
2018-07-20T03:05:54.612Z,16.8
2018-07-20T03:16:08.964Z,16.6
2018-07-20T03:26:23.146Z,16.4
2018-07-20T03:37:08.721Z,16.0
2018-07-20T03:47:54.312Z,15.9
2018-07-20T03:58:40.329Z,15.7
2018-07-20T04:08:54.717Z,15.7
2018-07-20T04:19:08.720Z,15.6
2018-07-20T04:29:54.477Z,15.4
2018-07-20T04:40:40.264Z,15.3
2018-07-20T04:50:54.112Z,15.3
2018-07-20T05:01:40.280Z,15.3
2018-07-20T05:11:54.313Z,15.3
2018-07-20T05:22:40.014Z,15.5
2018-07-20T05:33:25.858Z,15.7
2018-07-20T05:44:11.761Z,16.0
2018-07-20T05:54:24.018Z,15.9
2018-07-20T06:04:50.038Z,16.2
2018-07-20T06:15:04.444Z,16.5
2018-07-20T06:25:18.589Z,16.7
2018-07-20T06:35:32.671Z,17.1
2018-07-20T06:45:47.042Z,17.5
2018-07-20T06:56:01.358Z,17.9
2018-07-20T07:06:13.134Z,18.3
2018-07-20T07:16:26.825Z,18.8
2018-07-20T07:26:41.293Z,19.3
2018-07-20T07:36:53.270Z,19.9
2018-07-20T07:47:39.202Z,22.7
2018-07-20T07:58:27.122Z,24.9
2018-07-20T08:09:12.662Z,26.9
2018-07-20T08:19:26.349Z,26.9
2018-07-20T08:29:40.141Z,28.5
2018-07-20T08:39:54.520Z,29.9
2018-07-20T08:50:08.694Z,31.5
2018-07-20T09:00:23.126Z,32.8
2018-07-20T09:10:39.855Z,33.8
2018-07-20T09:21:24.985Z,35.6
2018-07-20T09:31:39.447Z,35.6
2018-07-20T09:41:51.678Z,36.4
2018-07-20T09:52:37.106Z,38.0
2018-07-20T10:03:22.816Z,38.5
2018-07-20T10:14:08.706Z,39.1
2018-07-20T10:24:54.458Z,39.5
2018-07-20T10:35:09.002Z,39.5
2018-07-20T10:45:23.270Z,40.1
2018-07-20T10:55:35.319Z,40.5
2018-07-20T11:05:49.136Z,40.9
2018-07-20T11:16:03.813Z,41.2
2018-07-20T11:26:18.081Z,41.6
2018-07-20T11:36:32.134Z,42.0
2018-07-20T11:46:44.473Z,42.3
2018-07-20T11:57:29.965Z,42.3
2018-07-20T12:07:44.726Z,42.3
2018-07-20T12:17:56.558Z,42.0
2018-07-20T12:28:11.035Z,41.9
2018-07-20T12:38:27.848Z,41.9
2018-07-20T12:48:44.338Z,42.1
2018-07-20T12:58:58.443Z,42.0
2018-07-20T13:09:12.437Z,42.1
2018-07-20T13:19:26.621Z,42.2
2018-07-20T13:29:41.430Z,42.3
2018-07-20T13:39:53.249Z,42.1
2018-07-20T13:50:04.265Z,41.9
2018-07-20T14:00:51.441Z,41.4
2018-07-20T14:11:05.774Z,41.3
2018-07-20T14:21:20.232Z,41.2
2018-07-20T14:31:34.263Z,41.1
2018-07-20T14:42:19.597Z,40.5
2018-07-20T15:16:43.322Z,39.0
2018-07-20T15:28:54.179Z,38.4
2018-07-20T16:13:59.979Z,36.6
2018-07-20T16:27:08.357Z,35.9
2018-07-20T17:22:01.155Z,33.9
2018-07-20T17:32:14.614Z,33.9
2018-07-20T17:42:30.611Z,33.1
2018-07-20T17:52:44.884Z,32.7
2018-07-20T18:02:59.248Z,32.3
2018-07-20T18:13:13.174Z,31.9
2018-07-20T18:23:27.863Z,31.4
2018-07-20T18:33:40.724Z,31.0
2018-07-20T18:44:26.154Z,30.0
2018-07-20T18:55:23.518Z,29.6
2018-07-20T19:18:49.022Z,28.7
2018-07-20T19:30:49.503Z,28.2
2018-07-20T19:43:43.927Z,27.6
2018-07-20T19:54:07.179Z,27.6
2018-07-20T20:04:20.637Z,27.0
2018-07-20T20:14:32.014Z,26.6
2018-07-20T20:25:17.365Z,25.8
2018-07-20T20:35:31.029Z,25.7
2018-07-20T20:45:45.195Z,25.4
2018-07-20T20:55:59.369Z,25.1
2018-07-20T21:06:45.186Z,24.6
2018-07-20T21:17:30.874Z,24.3
2018-07-20T21:28:16.764Z,24.1
2018-07-20T21:39:02.323Z,23.9
2018-07-20T21:49:47.939Z,23.7
2018-07-20T22:00:01.590Z,23.7
2018-07-20T22:10:18.104Z,23.5
2018-07-20T22:20:29.952Z,23.3
2018-07-20T22:30:43.935Z,23.2
2018-07-20T22:40:58.325Z,23.0
2018-07-20T22:51:12.759Z,22.9
2018-07-20T23:01:26.943Z,22.8
2018-07-20T23:12:12.586Z,22.6
2018-07-20T23:22:58.478Z,22.5
2018-07-20T23:33:43.781Z,22.4
2018-07-20T23:43:57.233Z,22.4
2018-07-20T23:54:43.081Z,22.2
